RCKHRCNN

Guest
Details From RCKH - KAOHSIUNG INTL
To RCNN - TAINAN
Flight Number -
Tags generated
Created
Modified
Stats Distance 27 nm / 50 km
Max Altitude 2,400 ft / 732 m
Waypoints 3
Social Downloads 0
Likes 0
Share VATSIM

Download

Looking for another format? Having issues loading an existing format? Contact us
Advertisement - Login to hide

Notes

Basic altitude profile: - Ascent Rate: 2500ft/min - Ascent Speed: 250kts - Cruise Altitude: 35000ft - Cruise Speed: 420kts - Descent Rate: 1500ft/min - Descent Speed: 250kts Options: - Use NATs: yes - Use PACOTS: yes - Use low airways: yes - Use high airways: yes

Route

RCKH ARLEN RCNN

ID Type Via Altitude Latitude Longitude Leg Dist Tot Dist Heading (true) Name
O RCKH APT - 0 ft / 0 m 22.57709˚ 120.35001˚ - 0 nm - KAOHSIUNG INTL
ARLEN FIX - 2,400 ft / 732 m 22.83726˚ 120.37032˚ 15 nm 15 nm 4° / 4° -
O RCNN APT - 0 ft / 0 m 22.95040˚ 120.20579˚ 11 nm 27 nm 307° / 307° TAINAN

Altitude Profile

Advertisement - Login to hide

RCKH

Details ICAO RCKH (KHH)
Name KAOHSIUNG INTL
Region Republic of China (Taiwan)
Timezone Asia/Taipei (UTC+8.0)
Stats Elevation 31 ft / 9 m (AMSL)
Location 22.577093° 120.350006°
Runways 1
Magnetic Variation 3.781° W

METAR

RCKH 181700Z 36009KT 330V030 9999 FEW016 SCT054 BKN080 17/12 Q1020 NOSIG RMK A3014

Decode

TAF

TAF RCKH 181100Z 1812/1918 36005KT 9999 FEW015 BKN050 TEMPO 1818/1824 06005KT TEMPO 1904/1910 34010KT

Decode

Departure Runways

ID Width Length Bearing (true) Bearing (mag) Surface Threshold Offset Overrun Length
09 197 ft / 60 m 10,316 ft / 3,144 m 91.92° 95.70° Concrete 525 ft / 160 m 197 ft / 60 m
27 197 ft / 60 m 10,316 ft / 3,144 m 271.93° 275.71° Concrete 1,477 ft / 450 m 197 ft / 60 m

RCNN

Details ICAO RCNN (TNN)
Name TAINAN
Region Republic of China (Taiwan)
Timezone Asia/Taipei (UTC+8.0)
Stats Elevation 63 ft / 19 m (AMSL)
Location 22.950403° 120.205792°
Runways 2
Magnetic Variation 3.846° W

METAR

RCNN 181700Z 35011KT 9999 FEW012 BKN080 15/12 Q1020 RMK A3014

Decode

TAF

TAF RCNN 181100Z 1812/1912 36008KT 9999 FEW012 BKN060 TX20/1906Z TN16/1821Z BECMG 1813/1816 FEW012 BKN040 BECMG 1902/1905 FEW012 BKN080

Decode

Destination Runways

ID Width Length Bearing (true) Bearing (mag) Surface Threshold Offset Overrun Length
18L 148 ft / 45 m 10,078 ft / 3,072 m 178.73° 182.58° Concrete 0 ft / 0 m 1,083 ft / 330 m
18R 148 ft / 45 m 10,018 ft / 3,054 m 178.61° 182.46° Concrete 0 ft / 0 m 502 ft / 153 m
36L 148 ft / 45 m 10,018 ft / 3,054 m 358.61° 2.46° Concrete 0 ft / 0 m 755 ft / 230 m
36R 148 ft / 45 m 10,078 ft / 3,072 m 358.73° 2.58° Concrete 0 ft / 0 m 755 ft / 230 m

Approach Navaids

Runway Type Ident Frequency Range Bearing (true) Bearing (mag) Slope Elevation
36R Localiser ITNN 110.10 MHz 18 nm / 33 km 358.83° 2.68° - 63 ft / 19 m (AMSL)
36R Glidescope ITNN 110.10 MHz 10 nm / 19 km 358.73° 2.57° 3.00° 63 ft / 19 m (AMSL)
36R DME ITNN 110.10 MHz 18 nm / 33 km - - - 63 ft / 19 m (AMSL)

Popular Alternatives